createdAt,value
2018-02-15T00:02:17.073Z,94.90
2018-02-15T00:04:44.704Z,94.90
2018-02-15T00:07:12.341Z,94.70
2018-02-15T00:09:39.950Z,94.90
2018-02-15T00:12:07.614Z,95.40
2018-02-15T00:14:36.025Z,95.30
2018-02-15T00:17:03.694Z,95.30
2018-02-15T00:19:31.331Z,95.20
2018-02-15T00:21:58.963Z,94.90
2018-02-15T00:24:27.402Z,95.00
2018-02-15T00:26:55.029Z,94.90
2018-02-15T00:29:22.689Z,94.70
2018-02-15T00:31:50.335Z,94.60
2018-02-15T00:34:17.994Z,94.50
2018-02-15T00:36:45.614Z,94.70
2018-02-15T00:39:14.036Z,94.90
2018-02-15T00:41:41.721Z,94.80
2018-02-15T00:44:09.403Z,94.80
2018-02-15T00:46:37.021Z,94.60
2018-02-15T00:49:04.654Z,94.80
2018-02-15T00:51:32.290Z,94.90
2018-02-15T00:54:00.697Z,94.70
2018-02-15T00:56:28.342Z,94.70
2018-02-15T00:58:56.762Z,94.80
2018-02-15T01:01:24.426Z,94.80
2018-02-15T01:03:52.096Z,94.80
2018-02-15T01:06:20.498Z,94.80
2018-02-15T01:08:48.138Z,94.80
2018-02-15T01:11:15.734Z,94.80
2018-02-15T01:13:43.409Z,95.20
2018-02-15T01:16:11.038Z,95.50
2018-02-15T01:18:38.678Z,95.60
2018-02-15T01:21:06.338Z,95.60
2018-02-15T01:23:34.004Z,96.00
2018-02-15T01:26:02.398Z,95.80
2018-02-15T01:28:30.048Z,95.80
2018-02-15T01:30:58.506Z,95.60
2018-02-15T01:33:26.164Z,95.60
2018-02-15T01:35:53.921Z,95.50
2018-02-15T01:38:21.570Z,95.40
2018-02-15T01:40:49.973Z,94.60
2018-02-15T01:43:18.363Z,95.60
2018-02-15T01:45:46.771Z,95.50
2018-02-15T01:48:14.446Z,95.50
2018-02-15T01:50:42.106Z,95.30
2018-02-15T01:53:10.486Z,95.40
2018-02-15T01:55:38.912Z,95.60
2018-02-15T01:58:06.509Z,95.50
2018-02-15T02:00:34.137Z,95.30
2018-02-15T02:03:01.841Z,95.40
2018-02-15T02:05:29.493Z,95.60
2018-02-15T02:07:57.108Z,95.60
2018-02-15T02:10:24.784Z,95.50
2018-02-15T02:12:52.383Z,95.20
2018-02-15T02:15:20.014Z,95.40
2018-02-15T02:17:47.682Z,95.40
2018-02-15T02:20:15.304Z,94.90
2018-02-15T02:22:42.970Z,95.20
2018-02-15T02:25:10.640Z,95.40
2018-02-15T02:27:38.337Z,95.00
2018-02-15T02:30:06.760Z,94.80
2018-02-15T02:32:34.374Z,94.80
2018-02-15T02:35:02.010Z,94.90
2018-02-15T02:37:29.634Z,95.50
2018-02-15T02:39:57.261Z,95.60
2018-02-15T02:42:24.849Z,95.90
2018-02-15T02:44:52.476Z,95.60
2018-02-15T02:47:20.179Z,95.10
2018-02-15T02:49:47.806Z,94.50
2018-02-15T02:52:16.237Z,94.40
2018-02-15T02:54:57.437Z,94.10
2018-02-15T02:57:25.058Z,94.10
2018-02-15T02:59:52.683Z,94.00
2018-02-15T03:02:20.285Z,93.20
2018-02-15T03:04:47.942Z,93.50
2018-02-15T03:07:15.606Z,93.30
2018-02-15T03:09:43.229Z,93.50
2018-02-15T03:12:10.886Z,93.60
2018-02-15T03:14:38.522Z,93.50
2018-02-15T03:17:06.137Z,93.80
2018-02-15T03:19:34.541Z,94.20
2018-02-15T03:22:02.133Z,94.20
2018-02-15T03:24:30.660Z,94.30
2018-02-15T03:27:22.575Z,94.30
2018-02-15T03:29:50.967Z,94.90
2018-02-15T03:32:19.330Z,94.70
2018-02-15T03:34:47.004Z,94.70
2018-02-15T03:37:14.602Z,94.30
2018-02-15T03:39:43.016Z,94.10
2018-02-15T03:42:10.645Z,94.10
2018-02-15T03:44:38.278Z,94.80
2018-02-15T03:47:06.682Z,94.00
2018-02-15T03:49:34.385Z,93.90
2018-02-15T03:52:02.017Z,93.80
2018-02-15T03:54:29.665Z,93.60
2018-02-15T03:56:57.281Z,93.80
2018-02-15T03:59:24.950Z,93.50
2018-02-15T04:01:52.565Z,93.30
2018-02-15T04:04:20.218Z,92.90
2018-02-15T04:06:47.809Z,92.00
2018-02-15T04:09:16.222Z,91.10
2018-02-15T04:11:55.385Z,91.00
2018-02-15T04:14:23.029Z,90.90
2018-02-15T04:16:51.482Z,90.00
2018-02-15T04:19:19.109Z,90.00
2018-02-15T04:21:46.737Z,89.30
2018-02-15T04:24:14.381Z,89.60
2018-02-15T04:26:42.030Z,88.80
2018-02-15T04:29:09.626Z,88.50
2018-02-15T04:31:37.465Z,87.10
2018-02-15T04:34:05.838Z,87.70
2018-02-15T04:36:34.265Z,87.50
2018-02-15T04:39:01.877Z,87.40
2018-02-15T04:41:29.505Z,87.20
2018-02-15T04:43:57.110Z,85.90
2018-02-15T04:46:24.717Z,85.90
2018-02-15T04:48:52.384Z,86.40
2018-02-15T04:51:21.533Z,86.00
2018-02-15T04:53:49.164Z,85.90
2018-02-15T04:56:16.801Z,85.60
2018-02-15T04:58:44.406Z,85.30
2018-02-15T05:01:12.846Z,84.40
2018-02-15T05:03:40.506Z,84.40
2018-02-15T05:06:08.190Z,83.70
2018-02-15T05:08:35.812Z,83.20
2018-02-15T05:11:03.500Z,80.90
2018-02-15T05:13:31.135Z,81.20
2018-02-15T05:15:58.806Z,80.70
2018-02-15T05:18:26.422Z,79.60
2018-02-15T05:20:54.851Z,79.10
2018-02-15T05:23:22.474Z,79.00
2018-02-15T05:25:50.111Z,78.10
2018-02-15T05:28:17.828Z,77.60
2018-02-15T05:30:45.453Z,77.60
2018-02-15T05:33:25.530Z,78.10
2018-02-15T05:35:53.214Z,78.50
2018-02-15T05:38:20.979Z,78.40
2018-02-15T05:40:48.601Z,78.30
2018-02-15T05:43:16.188Z,79.30
2018-02-15T05:45:44.552Z,80.40
2018-02-15T05:48:12.178Z,80.30
2018-02-15T05:50:39.832Z,81.10
2018-02-15T05:53:08.230Z,81.30
2018-02-15T05:55:35.858Z,81.20
2018-02-15T05:58:03.611Z,83.40
2018-02-15T06:00:31.260Z,84.80
2018-02-15T06:02:58.899Z,84.60
2018-02-15T06:05:26.522Z,83.80
2018-02-15T06:07:54.120Z,84.50
2018-02-15T06:10:27.603Z,84.50
2018-02-15T06:12:55.217Z,85.10
2018-02-15T06:18:22.031Z,84.00
2018-02-15T06:20:50.463Z,84.90
2018-02-15T06:23:18.081Z,84.90
2018-02-15T06:25:45.712Z,85.60
2018-02-15T06:28:13.412Z,86.40
2018-02-15T06:30:41.041Z,87.00
2018-02-15T06:33:08.671Z,87.20
2018-02-15T06:35:37.817Z,87.50
2018-02-15T06:38:05.450Z,87.40
2018-02-15T06:40:33.092Z,86.70
2018-02-15T06:43:00.714Z,87.00
2018-02-15T06:45:28.337Z,87.30
2018-02-15T06:47:55.947Z,86.40
2018-02-15T06:50:24.372Z,84.10
2018-02-15T06:52:52.773Z,82.30
2018-02-15T06:55:20.398Z,82.20
2018-02-15T06:57:48.021Z,82.40
2018-02-15T07:00:15.651Z,82.00
2018-02-15T07:02:43.240Z,81.30
2018-02-15T07:05:11.637Z,77.70
2018-02-15T07:07:39.255Z,77.70
2018-02-15T07:10:07.031Z,77.50
2018-02-15T07:12:34.631Z,75.20
2018-02-15T07:15:02.259Z,74.50
2018-02-15T07:17:29.933Z,75.30
2018-02-15T07:19:57.581Z,75.30
2018-02-15T07:22:25.993Z,71.80
2018-02-15T07:24:53.639Z,71.60
2018-02-15T07:27:22.066Z,74.10
2018-02-15T07:29:49.698Z,74.10
2018-02-15T07:32:17.386Z,74.50
2018-02-15T07:34:45.794Z,76.20
2018-02-15T07:37:13.416Z,76.10
2018-02-15T07:39:41.061Z,75.10
2018-02-15T07:42:08.686Z,76.80
2018-02-15T07:44:37.093Z,75.40
2018-02-15T07:47:05.521Z,77.00
2018-02-15T07:49:33.137Z,77.00
2018-02-15T07:52:00.773Z,77.50
2018-02-15T07:54:28.458Z,78.40
2018-02-15T07:56:56.076Z,78.70
2018-02-15T07:59:24.466Z,75.50
2018-02-15T08:01:52.857Z,76.90
2018-02-15T08:04:21.242Z,75.70
2018-02-15T08:06:49.660Z,73.80
2018-02-15T08:09:17.308Z,73.70
2018-02-15T08:11:45.730Z,72.00
2018-02-15T08:14:13.395Z,72.00
2018-02-15T08:16:41.001Z,72.30
2018-02-15T08:19:08.644Z,70.40
2018-02-15T08:21:36.258Z,69.00
2018-02-15T08:24:03.889Z,67.50
2018-02-15T08:26:31.514Z,68.10
2018-02-15T08:28:59.146Z,68.00
2018-02-15T08:31:26.818Z,69.10
2018-02-15T08:33:54.505Z,69.80
2018-02-15T08:36:22.127Z,70.40
2018-02-15T08:38:49.775Z,71.50
2018-02-15T08:41:17.423Z,69.70
2018-02-15T08:43:45.074Z,68.40
2018-02-15T08:46:13.453Z,67.00
2018-02-15T08:48:41.829Z,63.00
2018-02-15T08:51:09.497Z,62.90
2018-02-15T08:53:37.129Z,62.00
2018-02-15T08:56:04.762Z,61.30
2018-02-15T08:58:33.161Z,59.70
2018-02-15T09:01:01.544Z,61.80
2018-02-15T09:03:29.950Z,59.80
2018-02-15T09:08:48.267Z,61.50
2018-02-15T09:11:15.877Z,61.00
2018-02-15T09:13:43.522Z,61.70
2018-02-15T09:16:11.139Z,58.30
2018-02-15T09:18:39.526Z,57.90
2018-02-15T09:21:07.159Z,57.60
2018-02-15T09:23:34.816Z,55.50
2018-02-15T09:26:02.451Z,55.60
2018-02-15T09:28:30.832Z,56.40
2018-02-15T09:30:58.415Z,56.30
2018-02-15T09:33:26.891Z,55.00
2018-02-15T09:35:54.475Z,54.90
2018-02-15T09:38:22.854Z,51.60
2018-02-15T09:40:50.491Z,51.50
2018-02-15T09:43:18.085Z,51.60
2018-02-15T09:45:45.753Z,51.80
2018-02-15T09:48:13.384Z,50.80
2018-02-15T09:50:41.045Z,49.00
2018-02-15T09:53:09.393Z,50.30
2018-02-15T09:55:37.039Z,50.20
2018-02-15T09:58:04.663Z,52.90
2018-02-15T10:00:32.326Z,51.90
2018-02-15T10:02:59.919Z,51.40
2018-02-15T10:05:27.568Z,51.00
2018-02-15T10:07:55.220Z,50.90
2018-02-15T10:10:22.869Z,51.10
2018-02-15T10:12:51.282Z,52.50
2018-02-15T10:15:18.912Z,49.00
2018-02-15T10:17:47.263Z,43.40
2018-02-15T10:20:14.912Z,43.40
2018-02-15T10:22:42.544Z,42.00
2018-02-15T10:25:10.156Z,41.40
2018-02-15T10:27:37.793Z,40.40
2018-02-15T10:30:06.184Z,42.60
2018-02-15T10:32:33.803Z,42.50
2018-02-15T10:35:01.460Z,42.20
2018-02-15T10:37:29.057Z,40.50
2018-02-15T10:39:56.870Z,42.80
2018-02-15T10:42:24.476Z,46.00
2018-02-15T10:44:52.065Z,46.40
2018-02-15T10:47:20.419Z,44.00
2018-02-15T10:49:48.838Z,44.20
2018-02-15T10:52:16.447Z,44.20
2018-02-15T10:54:44.051Z,47.50
2018-02-15T10:57:12.455Z,47.90
2018-02-15T10:59:40.795Z,48.40
2018-02-15T11:02:14.047Z,48.30
2018-02-15T11:04:48.238Z,47.50
2018-02-15T11:07:15.887Z,47.30
2018-02-15T11:09:43.659Z,46.60
2018-02-15T11:12:11.287Z,44.20
2018-02-15T11:14:38.932Z,43.70
2018-02-15T11:17:06.578Z,42.30
2018-02-15T11:19:34.150Z,41.50
2018-02-15T11:22:01.759Z,39.80
2018-02-15T11:24:29.357Z,39.10
2018-02-15T11:26:57.747Z,41.30
2018-02-15T11:29:26.121Z,37.00
2018-02-15T11:31:53.753Z,36.90
2018-02-15T11:34:21.375Z,36.20
2018-02-15T11:36:49.758Z,36.50
2018-02-15T11:39:17.396Z,36.40
2018-02-15T11:41:44.979Z,39.70
2018-02-15T11:44:12.606Z,40.50
2018-02-15T11:46:40.970Z,41.20
2018-02-15T11:49:08.606Z,41.00
2018-02-15T11:51:36.219Z,41.30
2018-02-15T11:54:03.798Z,42.30
2018-02-15T11:56:32.166Z,45.20
2018-02-15T11:59:03.347Z,44.70
2018-02-15T12:01:30.921Z,45.40
2018-02-15T12:03:59.306Z,44.90
2018-02-15T12:06:26.953Z,44.70
2018-02-15T12:08:54.604Z,44.30
2018-02-15T12:11:22.548Z,46.20
2018-02-15T12:13:50.952Z,46.40
2018-02-15T12:16:18.563Z,46.40
2018-02-15T12:18:46.198Z,46.90
2018-02-15T12:21:14.588Z,46.10
2018-02-15T12:23:42.205Z,46.10
2018-02-15T12:26:09.802Z,44.80
2018-02-15T12:28:37.444Z,46.10
2018-02-15T12:31:05.045Z,46.50
2018-02-15T12:33:32.665Z,48.00
2018-02-15T12:36:00.310Z,49.20
2018-02-15T12:38:28.741Z,48.10
2018-02-15T12:40:56.387Z,48.00
2018-02-15T12:43:24.776Z,48.70
2018-02-15T12:45:52.407Z,48.60
2018-02-15T12:48:20.032Z,48.60
2018-02-15T12:50:47.699Z,50.30
2018-02-15T12:53:16.120Z,48.00
2018-02-15T12:55:43.771Z,48.00
2018-02-15T12:58:11.467Z,47.90
2018-02-15T13:00:39.083Z,49.00
2018-02-15T13:03:06.740Z,50.60
2018-02-15T13:05:34.383Z,50.10
2018-02-15T13:08:02.105Z,48.80
2018-02-15T13:10:29.733Z,49.40
2018-02-15T13:13:09.220Z,48.40
2018-02-15T13:15:48.611Z,49.80
2018-02-15T13:18:16.973Z,49.30
2018-02-15T13:20:45.524Z,49.40
2018-02-15T13:23:13.305Z,49.40
2018-02-15T13:25:40.946Z,49.10
2018-02-15T13:28:20.487Z,50.90
2018-02-15T13:30:48.873Z,50.10
2018-02-15T13:33:17.283Z,50.70
2018-02-15T13:35:45.661Z,50.40
2018-02-15T13:38:14.108Z,50.60
2018-02-15T13:40:41.735Z,50.60
2018-02-15T13:43:12.533Z,51.40
2018-02-15T13:45:40.140Z,52.00
2018-02-15T13:48:07.787Z,52.20
2018-02-15T13:50:35.392Z,52.70
2018-02-15T13:53:03.802Z,52.40
2018-02-15T13:55:31.404Z,52.40
2018-02-15T13:57:59.031Z,52.70
2018-02-15T14:00:27.405Z,53.20
2018-02-15T14:02:55.056Z,53.20
2018-02-15T14:05:22.647Z,53.10
2018-02-15T14:07:50.295Z,53.70
2018-02-15T14:10:17.838Z,53.10
2018-02-15T14:12:46.154Z,54.90
2018-02-15T14:15:13.703Z,54.80
2018-02-15T14:17:41.253Z,54.40
2018-02-15T14:20:09.543Z,54.40
2018-02-15T14:22:37.876Z,54.20
2018-02-15T14:25:05.414Z,54.00
2018-02-15T14:27:33.739Z,54.70
2018-02-15T14:30:01.271Z,54.70
2018-02-15T14:32:29.625Z,52.60
2018-02-15T14:34:57.147Z,52.50
2018-02-15T14:37:24.912Z,53.20
2018-02-15T14:39:53.439Z,53.30
2018-02-15T14:42:21.082Z,53.30
2018-02-15T14:44:48.638Z,53.00
2018-02-15T14:47:16.963Z,52.70
2018-02-15T14:49:44.495Z,52.50
2018-02-15T14:52:12.056Z,53.70
2018-02-15T14:54:39.598Z,55.60
2018-02-15T14:57:07.159Z,55.60
2018-02-15T14:59:34.697Z,54.70
2018-02-15T15:02:03.008Z,57.80
2018-02-15T15:04:30.542Z,57.80
2018-02-15T15:06:58.103Z,59.50
2018-02-15T15:09:25.630Z,62.80
2018-02-15T15:11:53.183Z,66.40
2018-02-15T15:14:20.714Z,69.90
2018-02-15T15:16:48.262Z,71.60
2018-02-15T15:19:15.794Z,73.80
2018-02-15T15:21:43.334Z,76.60
2018-02-15T15:24:10.862Z,80.40
2018-02-15T15:26:38.419Z,83.50
2018-02-15T15:29:05.959Z,85.30
2018-02-15T15:31:34.249Z,89.50
2018-02-15T15:34:02.568Z,90.50
2018-02-15T15:36:30.094Z,90.50
2018-02-15T15:38:57.879Z,91.20
2018-02-15T15:41:25.410Z,91.40
2018-02-15T15:43:52.967Z,91.70
2018-02-15T15:46:20.527Z,91.90
2018-02-15T15:48:48.074Z,92.20
2018-02-15T15:51:16.375Z,92.70
2018-02-15T15:53:43.940Z,92.70
2018-02-15T15:56:12.376Z,92.90
2018-02-15T15:58:39.938Z,92.90
2018-02-15T16:01:07.466Z,92.80
2018-02-15T16:03:35.773Z,92.90
2018-02-15T16:06:03.334Z,92.80
2018-02-15T16:08:31.654Z,92.80
2018-02-15T16:10:59.211Z,92.80
2018-02-15T16:13:26.758Z,92.80
2018-02-15T16:15:55.066Z,93.40
2018-02-15T16:18:22.610Z,93.40
2018-02-15T16:20:50.157Z,93.20
2018-02-15T16:23:17.710Z,93.40
2018-02-15T16:25:45.246Z,93.70
2018-02-15T16:28:13.740Z,94.30
2018-02-15T16:30:41.287Z,94.00
2018-02-15T16:33:09.611Z,93.50
2018-02-15T16:35:37.192Z,93.70
2018-02-15T16:38:05.488Z,93.80
2018-02-15T16:40:33.028Z,93.80
2018-02-15T16:43:01.356Z,94.70
2018-02-15T16:45:28.924Z,94.60
2018-02-15T16:47:56.475Z,94.80
2018-02-15T16:50:24.164Z,94.80
2018-02-15T16:52:51.775Z,94.80
2018-02-15T16:55:19.318Z,94.60
2018-02-15T16:57:46.908Z,94.40
2018-02-15T17:00:14.459Z,94.50
2018-02-15T17:02:45.689Z,94.70
2018-02-15T17:05:13.988Z,94.90
2018-02-15T17:07:41.543Z,94.90
2018-02-15T17:10:09.945Z,94.60
2018-02-15T17:12:37.514Z,94.60
2018-02-15T17:15:05.089Z,94.60
2018-02-15T17:17:32.639Z,94.50
2018-02-15T17:20:01.041Z,94.70
2018-02-15T17:22:29.354Z,95.00
2018-02-15T17:24:56.913Z,95.00
2018-02-15T17:27:24.524Z,94.70
2018-02-15T17:29:52.152Z,94.90
2018-02-15T17:32:19.744Z,95.20
2018-02-15T17:34:47.364Z,95.40
2018-02-15T17:37:14.985Z,95.50
2018-02-15T17:39:42.631Z,95.30
2018-02-15T17:42:11.027Z,95.30
2018-02-15T17:44:38.676Z,95.30
2018-02-15T17:47:07.047Z,95.50
2018-02-15T17:49:34.675Z,95.50
2018-02-15T17:52:02.310Z,95.70
2018-02-15T17:54:29.937Z,95.60
2018-02-15T17:56:57.540Z,95.60
2018-02-15T17:59:25.164Z,95.40
2018-02-15T18:01:52.763Z,96.10
2018-02-15T18:04:26.792Z,95.70
2018-02-15T18:06:54.358Z,95.70
2018-02-15T18:09:24.008Z,95.50
2018-02-15T18:11:52.423Z,95.40
2018-02-15T18:14:20.840Z,95.20
2018-02-15T18:16:48.456Z,95.10
2018-02-15T18:19:16.076Z,95.30
2018-02-15T18:21:43.691Z,95.20
2018-02-15T18:24:11.354Z,95.20
2018-02-15T18:26:38.955Z,95.30
2018-02-15T18:29:06.566Z,95.50
2018-02-15T18:31:35.983Z,95.20
2018-02-15T18:34:03.614Z,95.20
2018-02-15T18:36:31.212Z,95.20
2018-02-15T18:45:01.140Z,95.20
2018-02-15T18:47:28.834Z,94.80
2018-02-15T18:49:56.502Z,95.00
2018-02-15T18:52:24.107Z,95.00
2018-02-15T18:54:52.542Z,94.90
2018-02-15T19:00:23.769Z,95.00
2018-02-15T19:02:51.359Z,95.00
2018-02-15T19:05:18.988Z,95.10
2018-02-15T19:07:46.578Z,95.10
2018-02-15T19:10:14.268Z,95.10
2018-02-15T19:12:42.003Z,95.10
2018-02-15T19:15:10.435Z,95.40
2018-02-15T19:17:38.024Z,95.50
2018-02-15T19:20:05.654Z,95.70
2018-02-15T19:22:33.260Z,95.90
2018-02-15T19:25:00.891Z,96.20
2018-02-15T19:27:28.503Z,96.00
2018-02-15T19:29:56.138Z,95.90
2018-02-15T19:32:23.810Z,95.70
2018-02-15T19:34:51.399Z,95.70
2018-02-15T19:37:19.044Z,95.90
2018-02-15T19:39:46.651Z,95.80
2018-02-15T19:42:14.279Z,96.00
2018-02-15T19:44:42.671Z,96.40
2018-02-15T19:47:10.311Z,96.40
2018-02-15T19:49:37.924Z,96.40
2018-02-15T19:52:06.312Z,96.30
2018-02-15T19:54:34.696Z,96.20
2018-02-15T19:57:02.356Z,96.20
2018-02-15T19:59:29.946Z,96.00
2018-02-15T20:01:57.608Z,96.20
2018-02-15T20:04:25.346Z,96.10
2018-02-15T20:06:53.097Z,96.10
2018-02-15T20:09:20.663Z,96.30
2018-02-15T20:11:49.084Z,96.30
2018-02-15T20:14:16.691Z,96.30
2018-02-15T20:16:56.628Z,96.30
2018-02-15T20:19:24.216Z,96.30
2018-02-15T20:21:51.874Z,96.50
2018-02-15T20:24:38.945Z,96.80
2018-02-15T20:27:12.151Z,96.50
2018-02-15T20:29:40.528Z,96.80
2018-02-15T20:32:08.173Z,96.50
2018-02-15T20:34:36.150Z,96.60
2018-02-15T20:37:03.767Z,96.70
2018-02-15T20:39:37.005Z,96.90
2018-02-15T20:42:06.154Z,97.40
2018-02-15T20:44:33.829Z,97.40
2018-02-15T20:47:01.415Z,97.50
2018-02-15T20:49:34.844Z,97.30
2018-02-15T20:52:08.061Z,97.30
2018-02-15T20:54:42.256Z,97.30
2018-02-15T20:57:09.908Z,97.60
2018-02-15T20:59:37.618Z,97.40
2018-02-15T21:02:05.223Z,97.40
2018-02-15T21:04:33.623Z,97.20
2018-02-15T21:07:01.326Z,97.20
2018-02-15T21:09:28.950Z,97.20
2018-02-15T21:11:57.335Z,97.30
2018-02-15T21:14:38.225Z,97.40
2018-02-15T21:17:06.593Z,97.40
2018-02-15T21:19:34.309Z,97.40
2018-02-15T21:22:01.920Z,97.50
2018-02-15T21:24:29.558Z,97.50
2018-02-15T21:26:57.169Z,97.40
2018-02-15T21:29:24.799Z,97.50
2018-02-15T21:31:52.908Z,97.30
2018-02-15T21:34:20.547Z,97.20
2018-02-15T21:36:49.183Z,97.60
2018-02-15T21:39:17.628Z,97.70
2018-02-15T21:41:46.017Z,97.90
2018-02-15T21:44:20.660Z,98.00
2018-02-15T21:46:49.083Z,98.20
2018-02-15T21:49:16.918Z,98.20
2018-02-15T21:51:44.667Z,98.30
2018-02-15T21:54:12.288Z,98.30
2018-02-15T21:56:40.753Z,98.50
2018-02-15T21:59:08.436Z,98.50
2018-02-15T22:01:36.902Z,98.50
2018-02-15T22:04:05.309Z,98.40
2018-02-15T22:06:32.961Z,98.40
2018-02-15T22:09:00.557Z,98.50
2018-02-15T22:11:28.255Z,98.50
2018-02-15T22:13:55.856Z,98.50
2018-02-15T22:16:23.472Z,98.50
2018-02-15T22:18:51.902Z,98.50
2018-02-15T22:21:20.339Z,98.50
2018-02-15T22:23:47.947Z,98.50
2018-02-15T22:26:15.552Z,98.60
2018-02-15T22:28:43.148Z,98.70
2018-02-15T22:31:10.809Z,98.60
2018-02-15T22:33:38.404Z,98.60
2018-02-15T22:36:06.051Z,98.50
2018-02-15T22:38:33.642Z,98.40
2018-02-15T22:41:01.264Z,98.40
2018-02-15T22:43:28.889Z,98.60
2018-02-15T22:45:59.665Z,98.60
2018-02-15T22:48:27.269Z,98.60
2018-02-15T22:50:55.668Z,98.90
2018-02-15T22:53:24.014Z,99.00
2018-02-15T22:55:51.670Z,98.90
2018-02-15T22:58:19.261Z,99.00
2018-02-15T23:00:46.889Z,99.00
2018-02-15T23:03:15.291Z,99.10
2018-02-15T23:05:43.015Z,99.10
2018-02-15T23:08:10.667Z,99.10
2018-02-15T23:10:38.271Z,99.10
2018-02-15T23:13:05.892Z,99.10
2018-02-15T23:15:33.496Z,99.20
2018-02-15T23:18:01.160Z,99.30
2018-02-15T23:20:28.758Z,98.90
2018-02-15T23:22:56.369Z,99.00
2018-02-15T23:25:23.971Z,99.20
2018-02-15T23:27:51.625Z,99.10
2018-02-15T23:30:19.392Z,99.20
2018-02-15T23:32:47.022Z,99.30
2018-02-15T23:35:17.790Z,99.00
2018-02-15T23:37:46.196Z,99.00
2018-02-15T23:40:14.586Z,99.00
2018-02-15T23:42:43.008Z,99.10
2018-02-15T23:45:10.624Z,99.10
2018-02-15T23:47:38.239Z,99.30
2018-02-15T23:50:05.903Z,99.50
2018-02-15T23:52:34.263Z,99.50
2018-02-15T23:55:02.681Z,99.40
2018-02-15T23:57:30.328Z,99.30
2018-02-15T23:59:58.180Z,99.30
